Time;durP1;ratioP1;P1;durP2;ratioP2;P2;SDS_P1;SDS_P2;PMS_P1;PMS_P2;Temp;Humidity;BMP_temperature;BMP_pressure;BME280_temperature;BME280_humidity;BME280_pressure;Samples;Min_cycle;Max_cycle;Signal;HPM_P1;HPM_P2
2023/06/03 00:01:41;;;;;;;8.63;5.47;;;14.80;99.90;;;;;;5084643;28;20791;-58
2023/06/03 00:04:08;;;;;;;10.27;5.43;;;14.80;99.90;;;;;;5075694;28;20235;-58
2023/06/03 00:06:35;;;;;;;8.63;6.07;;;14.70;99.90;;;;;;5079219;28;20290;-58
2023/06/03 00:09:02;;;;;;;10.37;5.90;;;14.70;99.90;;;;;;5075604;28;20247;-60
2023/06/03 00:11:29;;;;;;;11.90;5.90;;;14.80;99.90;;;;;;5079078;28;20262;-58
2023/06/03 00:13:56;;;;;;;12.73;5.67;;;14.70;99.90;;;;;;5076941;28;20216;-58
2023/06/03 00:16:23;;;;;;;8.27;6.00;;;14.70;99.90;;;;;;5082213;28;20202;-58
2023/06/03 00:18:50;;;;;;;8.63;5.60;;;14.60;99.90;;;;;;5081427;28;20206;-59
2023/06/03 00:21:17;;;;;;;8.87;6.13;;;14.60;99.90;;;;;;5079849;28;20192;-58
2023/06/03 00:23:45;;;;;;;10.03;5.63;;;14.40;99.90;;;;;;5083237;28;20207;-58
2023/06/03 00:26:13;;;;;;;9.77;5.97;;;14.40;99.90;;;;;;5083985;28;20216;-58
2023/06/03 00:28:40;;;;;;;9.77;5.83;;;14.30;99.90;;;;;;5086459;28;20194;-59
2023/06/03 00:31:06;;;;;;;13.93;6.23;;;14.30;99.90;;;;;;5084832;28;20848;-58
2023/06/03 00:33:33;;;;;;;10.20;5.97;;;14.30;99.90;;;;;;5076652;28;21043;-57
2023/06/03 00:36:01;;;;;;;7.33;5.40;;;14.30;99.90;;;;;;5082230;28;20933;-58
2023/06/03 00:38:28;;;;;;;7.30;5.63;;;14.30;99.90;;;;;;5080079;28;20205;-58
2023/06/03 00:40:55;;;;;;;10.67;5.10;;;14.10;99.90;;;;;;5080326;28;20688;-58
2023/06/03 00:43:22;;;;;;;10.73;5.60;;;14.20;99.90;;;;;;5071535;28;20201;-60
2023/06/03 00:45:49;;;;;;;8.03;5.73;;;14.30;99.90;;;;;;5064804;28;20208;-58
2023/06/03 00:48:16;;;;;;;8.23;5.50;;;14.20;99.90;;;;;;5076077;28;20200;-58
2023/06/03 00:50:43;;;;;;;8.13;5.23;;;14.10;99.90;;;;;;5072240;28;20229;-59
2023/06/03 00:53:10;;;;;;;5.53;4.20;;;14.10;99.90;;;;;;5062498;28;20259;-58
2023/06/03 00:55:37;;;;;;;9.70;5.13;;;14.00;99.90;;;;;;5075940;28;20203;-58
2023/06/03 00:58:04;;;;;;;9.40;5.47;;;14.10;99.90;;;;;;5060321;28;20689;-58
2023/06/03 01:00:31;;;;;;;12.10;5.80;;;14.20;99.90;;;;;;5072718;28;21064;-58
2023/06/03 01:03:01;;;;;;;7.73;5.47;;;14.20;99.90;;;;;;5072386;28;20314;-58
2023/06/03 01:05:28;;;;;;;10.47;5.13;;;14.20;99.90;;;;;;5061898;28;20633;-59
2023/06/03 01:08:07;;;;;;;11.07;5.80;;;14.10;99.90;;;;;;5044314;28;20753;-58
2023/06/03 01:10:46;;;;;;;9.60;5.10;;;14.00;99.90;;;;;;5067740;28;20216;-58
2023/06/03 01:13:40;;;;;;;10.43;5.77;;;14.00;99.90;;;;;;5060746;28;20220;-58
2023/06/03 01:16:08;;;;;;;11.70;5.10;;;14.00;99.90;;;;;;5066043;28;20204;-58
2023/06/03 01:18:37;;;;;;;7.40;5.03;;;14.00;99.90;;;;;;5078816;28;20233;-58
2023/06/03 01:21:05;;;;;;;9.47;5.27;;;13.90;99.90;;;;;;5074536;28;20215;-59
2023/06/03 01:23:36;;;;;;;8.97;5.10;;;13.90;99.90;;;;;;5084225;28;20212;-58
2023/06/03 01:26:06;;;;;;;9.03;5.17;;;13.90;99.90;;;;;;5080594;28;20293;-58
2023/06/03 01:28:33;;;;;;;10.37;5.23;;;13.90;99.90;;;;;;5079149;28;20757;-59
2023/06/03 01:31:02;;;;;;;11.23;4.70;;;13.80;99.90;;;;;;5085924;28;20327;-59
2023/06/03 01:33:30;;;;;;;12.30;5.50;;;13.80;99.90;;;;;;5082667;28;20255;-58
2023/06/03 01:35:59;;;;;;;8.27;5.20;;;13.80;99.90;;;;;;5064848;28;20225;-58
2023/06/03 01:38:27;;;;;;;9.43;5.30;;;13.60;99.90;;;;;;5075303;28;20200;-58
2023/06/03 01:40:55;;;;;;;8.00;5.20;;;13.50;99.90;;;;;;5064547;28;20206;-58
2023/06/03 01:43:22;;;;;;;11.67;5.30;;;13.50;99.90;;;;;;5075871;28;20659;-58
2023/06/03 01:45:49;;;;;;;8.73;5.20;;;13.60;99.90;;;;;;5078274;28;20311;-59
2023/06/03 01:48:17;;;;;;;11.60;4.90;;;13.80;99.90;;;;;;5075544;28;20249;-58
2023/06/03 01:50:44;;;;;;;10.17;5.77;;;13.80;99.90;;;;;;5077429;28;20203;-58
2023/06/03 01:53:12;;;;;;;8.13;5.10;;;13.80;99.90;;;;;;5077267;28;20609;-58
2023/06/03 01:55:39;;;;;;;9.57;5.37;;;13.60;99.90;;;;;;5076256;28;22049;-58
2023/06/03 01:58:06;;;;;;;7.30;4.83;;;13.60;99.90;;;;;;5078178;28;20287;-58
2023/06/03 02:00:33;;;;;;;9.50;4.90;;;13.70;99.90;;;;;;5076767;28;20736;-58
2023/06/03 02:03:00;;;;;;;7.37;4.70;;;13.70;99.90;;;;;;5068565;28;20270;-58
2023/06/03 02:05:27;;;;;;;9.07;4.87;;;13.80;99.90;;;;;;5078304;28;20201;-58
2023/06/03 02:07:54;;;;;;;11.00;5.13;;;13.70;99.90;;;;;;5075281;28;20208;-58
2023/06/03 02:10:21;;;;;;;7.30;4.70;;;13.60;99.90;;;;;;5062041;28;20221;-58
2023/06/03 02:12:48;;;;;;;8.30;5.03;;;13.60;99.90;;;;;;5076552;28;20208;-58
2023/06/03 02:15:15;;;;;;;7.43;4.63;;;13.50;99.90;;;;;;5078021;28;20864;-58
2023/06/03 02:17:43;;;;;;;7.47;5.27;;;13.50;99.90;;;;;;5060332;28;21125;-58
2023/06/03 02:20:11;;;;;;;9.03;4.93;;;13.60;99.90;;;;;;5077807;28;20203;-63
2023/06/03 02:22:38;;;;;;;9.97;4.73;;;13.50;99.90;;;;;;5073967;28;20576;-58
2023/06/03 02:25:06;;;;;;;13.40;5.67;;;13.60;99.90;;;;;;5074085;28;21127;-58
2023/06/03 02:27:33;;;;;;;6.63;5.07;;;13.60;99.90;;;;;;5084410;28;20196;-58
2023/06/03 02:30:00;;;;;;;9.47;5.40;;;13.60;99.90;;;;;;5085434;28;20751;-57
2023/06/03 02:32:27;;;;;;;7.40;4.90;;;13.50;99.90;;;;;;5081379;28;20646;-58
2023/06/03 02:34:54;;;;;;;8.23;4.97;;;13.50;99.90;;;;;;5069838;28;20204;-56
2023/06/03 02:37:22;;;;;;;8.27;5.07;;;13.40;99.90;;;;;;5081723;28;20203;-57
2023/06/03 02:39:49;;;;;;;7.30;6.10;;;13.30;99.90;;;;;;5081814;28;20606;-57
2023/06/03 02:42:16;;;;;;;8.67;4.30;;;13.30;99.90;;;;;;5061829;28;20213;-56
2023/06/03 02:44:43;;;;;;;7.73;5.00;;;13.40;99.90;;;;;;5073778;28;20196;-56
2023/06/03 02:47:10;;;;;;;9.13;5.03;;;13.40;99.90;;;;;;5082001;28;20208;-56
2023/06/03 02:49:37;;;;;;;6.97;4.93;;;13.30;99.90;;;;;;5060242;28;20195;-56
2023/06/03 02:52:04;;;;;;;9.50;5.43;;;13.30;99.90;;;;;;5070465;28;20199;-56
2023/06/03 02:54:31;;;;;;;8.80;5.87;;;13.30;99.90;;;;;;5077384;28;20233;-56
2023/06/03 02:56:58;;;;;;;8.27;5.10;;;13.20;99.90;;;;;;5082382;28;20191;-56
2023/06/03 02:59:25;;;;;;;7.67;5.10;;;13.20;99.90;;;;;;5080867;28;20650;-56
2023/06/03 03:01:52;;;;;;;9.33;4.80;;;13.20;99.90;;;;;;5071929;28;20197;-57
2023/06/03 03:04:20;;;;;;;8.00;5.53;;;13.20;99.90;;;;;;5059959;28;20285;-57
2023/06/03 03:06:49;;;;;;;10.43;5.33;;;13.20;99.90;;;;;;5083749;28;20225;-56
2023/06/03 03:09:17;;;;;;;7.53;4.80;;;13.30;99.90;;;;;;5080700;28;20210;-56
2023/06/03 03:11:44;;;;;;;8.27;5.60;;;13.30;99.90;;;;;;5081787;28;20227;-56
2023/06/03 03:14:11;;;;;;;8.13;4.97;;;13.30;99.90;;;;;;5061443;28;20208;-56
2023/06/03 03:16:38;;;;;;;6.93;4.70;;;13.20;99.90;;;;;;5065635;28;20196;-56
2023/06/03 03:19:05;;;;;;;8.37;5.00;;;13.20;99.90;;;;;;5082166;28;20208;-57
2023/06/03 03:21:33;;;;;;;8.70;4.63;;;13.10;99.90;;;;;;5064669;28;20202;-56
2023/06/03 03:24:00;;;;;;;5.80;4.73;;;13.20;99.90;;;;;;5080391;28;20220;-56
2023/06/03 03:26:28;;;;;;;6.40;4.80;;;13.20;99.90;;;;;;5083605;28;20211;-57
2023/06/03 03:28:56;;;;;;;8.17;5.40;;;13.10;99.90;;;;;;5087103;28;20201;-56
2023/06/03 03:31:23;;;;;;;6.50;5.10;;;13.00;99.90;;;;;;5084401;28;20297;-56
2023/06/03 03:33:50;;;;;;;7.40;5.30;;;13.00;99.90;;;;;;5080635;28;20239;-56
2023/06/03 03:36:22;;;;;;;8.53;5.50;;;12.90;99.90;;;;;;5080017;28;20227;-57
2023/06/03 03:39:06;;;;;;;11.10;4.73;;;13.00;99.90;;;;;;5059691;28;20285;-56
2023/06/03 03:41:33;;;;;;;6.03;5.07;;;12.90;99.90;;;;;;5063436;28;20280;-56
2023/06/03 03:44:00;;;;;;;6.50;4.47;;;12.90;99.90;;;;;;5085405;28;20661;-56
2023/06/03 03:46:27;;;;;;;7.23;4.63;;;12.80;99.90;;;;;;5081881;28;20210;-56
2023/06/03 03:48:54;;;;;;;9.83;5.00;;;12.70;99.90;;;;;;5081723;28;20662;-56
2023/06/03 03:51:21;;;;;;;7.73;4.70;;;12.70;99.90;;;;;;5082129;28;20733;-56
2023/06/03 03:53:49;;;;;;;5.83;4.63;;;12.70;99.90;;;;;;5082793;28;20200;-56
2023/06/03 03:56:18;;;;;;;7.47;5.27;;;12.80;99.90;;;;;;5060997;28;20243;-57
2023/06/03 03:58:49;;;;;;;5.23;4.40;;;12.70;99.90;;;;;;5081199;28;20235;-56
2023/06/03 04:01:18;;;;;;;8.80;4.60;;;12.70;99.90;;;;;;5080820;28;20712;-56
2023/06/03 04:03:47;;;;;;;5.23;4.60;;;12.80;99.90;;;;;;5080337;28;20789;-56
2023/06/03 04:06:36;;;;;;;7.60;4.70;;;12.70;99.90;;;;;;5081193;28;20339;-56
2023/06/03 04:09:04;;;;;;;12.93;5.33;;;12.70;99.90;;;;;;5077687;28;20204;-56
2023/06/03 04:11:36;;;;;;;6.33;5.13;;;12.70;99.90;;;;;;5078538;28;20215;-57
2023/06/03 04:14:08;;;;;;;9.47;4.70;;;12.60;99.90;;;;;;5061702;28;20203;-56
2023/06/03 04:16:46;;;;;;;8.50;4.63;;;12.60;99.90;;;;;;5082037;28;20953;-56
2023/06/03 04:19:19;;;;;;;8.73;4.80;;;12.70;99.90;;;;;;5080744;28;20207;-56
2023/06/03 04:21:47;;;;;;;6.63;4.43;;;12.80;99.90;;;;;;5080529;28;21039;-56
2023/06/03 04:24:14;;;;;;;5.60;4.53;;;12.80;99.90;;;;;;5058936;28;20256;-56
2023/06/03 04:26:41;;;;;;;6.60;4.13;;;12.90;99.90;;;;;;5080630;28;22367;-56
2023/06/03 04:29:08;;;;;;;6.43;5.30;;;12.90;99.90;;;;;;5084037;28;20204;-57
2023/06/03 04:31:35;;;;;;;7.07;4.60;;;12.90;99.90;;;;;;5080022;28;20220;-56
2023/06/03 04:34:02;;;;;;;8.30;4.00;;;13.00;99.90;;;;;;5056875;28;20240;-56
2023/06/03 04:36:29;;;;;;;8.40;4.20;;;13.00;99.90;;;;;;5081752;28;20459;-58
2023/06/03 04:38:58;;;;;;;6.37;3.97;;;13.00;99.90;;;;;;5076983;28;20209;-56
2023/06/03 04:41:28;;;;;;;7.33;3.50;;;13.00;99.90;;;;;;5080485;28;20238;-57
2023/06/03 04:43:55;;;;;;;7.17;4.13;;;13.00;99.90;;;;;;5079783;28;20203;-57
2023/06/03 04:46:29;;;;;;;4.93;3.67;;;13.10;99.90;;;;;;5060898;28;20212;-57
2023/06/03 04:48:57;;;;;;;10.43;3.87;;;13.20;99.90;;;;;;5078904;28;21193;-57
2023/06/03 04:51:27;;;;;;;5.60;3.70;;;13.20;99.90;;;;;;5077578;28;20892;-57
2023/06/03 04:53:56;;;;;;;5.97;3.43;;;13.20;99.90;;;;;;5079154;28;20643;-57
2023/06/03 04:56:25;;;;;;;5.70;3.70;;;13.40;99.90;;;;;;5075985;28;20244;-56
2023/06/03 04:58:55;;;;;;;6.20;3.17;;;13.50;99.90;;;;;;5083372;28;20260;-57
2023/06/03 05:01:23;;;;;;;5.83;3.57;;;13.50;99.90;;;;;;5064774;28;20652;-57
2023/06/03 05:03:51;;;;;;;4.70;3.10;;;13.60;99.90;;;;;;5066173;28;20236;-57
2023/06/03 05:06:19;;;;;;;4.40;3.03;;;13.70;99.90;;;;;;5067422;28;20366;-57
2023/06/03 05:08:50;;;;;;;6.20;2.90;;;13.70;99.90;;;;;;5054245;28;20282;-57
2023/06/03 05:11:17;;;;;;;5.00;2.90;;;13.80;99.90;;;;;;5055414;28;20216;-56
2023/06/03 05:13:45;;;;;;;5.30;3.00;;;13.90;99.90;;;;;;5076830;28;20598;-57
2023/06/03 05:16:12;;;;;;;4.37;2.77;;;13.80;99.90;;;;;;5052671;28;20210;-59
2023/06/03 05:18:39;;;;;;;5.23;3.03;;;14.00;99.90;;;;;;5068510;28;20670;-57
2023/06/03 05:21:06;;;;;;;6.53;2.80;;;14.20;99.90;;;;;;5079304;28;20279;-57
2023/06/03 05:23:33;;;;;;;4.80;2.70;;;14.30;99.90;;;;;;5052183;28;20265;-57
2023/06/03 05:26:00;;;;;;;2.80;2.53;;;14.20;99.90;;;;;;5078015;28;20880;-57
2023/06/03 05:28:27;;;;;;;4.73;2.80;;;14.20;99.90;;;;;;5076431;28;20949;-57
2023/06/03 05:30:54;;;;;;;2.63;2.30;;;14.40;99.90;;;;;;5061041;28;20339;-56
2023/06/03 05:33:25;;;;;;;5.43;2.80;;;14.50;99.90;;;;;;5070576;28;20233;-57
2023/06/03 05:35:52;;;;;;;4.80;2.70;;;14.40;99.90;;;;;;5071496;28;20257;-57
2023/06/03 05:38:20;;;;;;;4.27;2.33;;;14.50;99.90;;;;;;5064300;28;20321;-57
2023/06/03 05:40:49;;;;;;;3.70;2.57;;;14.60;99.90;;;;;;5077495;28;20604;-58
2023/06/03 05:43:16;;;;;;;4.17;2.70;;;14.80;99.90;;;;;;5076499;28;20387;-56
2023/06/03 05:45:43;;;;;;;5.90;2.73;;;14.80;99.90;;;;;;5077149;28;20539;-57
2023/06/03 05:48:11;;;;;;;10.83;2.73;;;14.90;99.90;;;;;;5056610;28;20214;-57
2023/06/03 05:50:47;;;;;;;9.60;3.00;;;15.00;99.90;;;;;;5071943;28;20752;-57
2023/06/03 05:53:14;;;;;;;2.73;2.13;;;15.00;99.90;;;;;;5081664;28;20717;-57
2023/06/03 05:55:42;;;;;;;3.63;2.40;;;15.10;99.90;;;;;;5056247;28;20255;-56
2023/06/03 05:58:09;;;;;;;3.43;2.57;;;15.10;99.90;;;;;;5086007;28;20236;-56
2023/06/03 06:00:36;;;;;;;4.87;3.60;;;15.10;99.90;;;;;;5074729;28;20203;-56
2023/06/03 06:03:03;;;;;;;3.23;2.37;;;15.20;99.90;;;;;;5068388;28;20231;-56
2023/06/03 06:05:30;;;;;;;4.63;2.60;;;15.30;99.90;;;;;;5061155;28;20218;-57
2023/06/03 06:07:57;;;;;;;3.27;2.20;;;15.20;99.90;;;;;;5071520;28;20224;-57
2023/06/03 06:10:24;;;;;;;3.13;2.00;;;15.30;99.90;;;;;;5062566;28;20887;-57
2023/06/03 06:12:51;;;;;;;3.23;2.43;;;15.20;99.90;;;;;;5081980;28;20207;-56
2023/06/03 06:15:18;;;;;;;3.57;2.10;;;15.30;99.90;;;;;;5083437;28;20201;-57
2023/06/03 06:17:45;;;;;;;2.77;2.10;;;15.40;99.90;;;;;;5086548;28;20202;-56
2023/06/03 06:20:12;;;;;;;3.93;2.07;;;15.40;99.90;;;;;;5083523;28;20659;-57
2023/06/03 06:22:39;;;;;;;3.87;2.43;;;15.40;99.90;;;;;;5080802;28;20210;-56
2023/06/03 06:25:08;;;;;;;3.43;2.20;;;15.50;99.90;;;;;;5078146;28;20760;-56
2023/06/03 06:27:35;;;;;;;2.13;1.83;;;15.40;99.90;;;;;;5082461;28;20607;-56
2023/06/03 06:30:03;;;;;;;3.43;1.97;;;15.50;99.90;;;;;;5061803;28;20693;-56
2023/06/03 06:32:30;;;;;;;2.80;2.10;;;15.80;99.90;;;;;;5085041;28;20245;-57
2023/06/03 06:34:57;;;;;;;3.27;2.10;;;16.00;99.90;;;;;;5068550;28;20828;-57
2023/06/03 06:37:24;;;;;;;3.43;2.30;;;15.90;99.90;;;;;;5080137;28;20209;-56
2023/06/03 06:39:52;;;;;;;4.97;1.83;;;16.00;99.90;;;;;;5080044;28;20280;-56
2023/06/03 06:42:33;;;;;;;5.90;2.07;;;16.20;99.90;;;;;;5081208;28;20550;-56
2023/06/03 06:45:30;;;;;;;2.23;2.03;;;16.40;99.90;;;;;;5072630;28;20208;-57
2023/06/03 06:48:08;;;;;;;3.03;2.10;;;16.50;99.90;;;;;;5067397;28;20213;-57
2023/06/03 06:50:46;;;;;;;3.17;1.90;;;16.60;99.90;;;;;;4719375;28;9999779;-57
2023/06/03 06:53:14;;;;;;;3.43;2.20;;;16.90;99.90;;;;;;5069344;28;20225;-56
2023/06/03 06:56:01;;;;;;;2.77;2.37;;;17.10;99.90;;;;;;5064920;28;20208;-57
2023/06/03 06:58:46;;;;;;;3.97;2.20;;;17.10;99.90;;;;;;5068825;28;20230;-56
2023/06/03 07:01:13;;;;;;;4.60;2.20;;;17.10;99.90;;;;;;5057477;28;20214;-56
2023/06/03 07:03:40;;;;;;;2.93;2.10;;;17.30;99.90;;;;;;5076173;28;20249;-56
2023/06/03 07:06:07;;;;;;;3.03;1.90;;;17.60;99.90;;;;;;5050875;28;20663;-56
2023/06/03 07:08:34;;;;;;;5.20;1.60;;;17.60;99.90;;;;;;5073635;28;20231;-57
2023/06/03 07:11:04;;;;;;;3.20;1.63;;;17.80;99.90;;;;;;5060100;28;20211;-56
2023/06/03 07:13:31;;;;;;;3.00;1.70;;;17.90;99.90;;;;;;5060106;28;20201;-57
2023/06/03 07:16:00;;;;;;;3.53;1.50;;;18.20;99.90;;;;;;5079803;28;20497;-57
2023/06/03 07:18:29;;;;;;;4.60;1.60;;;18.50;99.90;;;;;;5072845;28;20620;-57
2023/06/03 07:20:57;;;;;;;3.30;1.60;;;18.70;99.90;;;;;;5075858;28;20554;-58
2023/06/03 07:23:28;;;;;;;2.87;1.63;;;18.60;99.90;;;;;;5078418;28;20201;-57
2023/06/03 07:25:56;;;;;;;1.50;1.33;;;18.50;99.90;;;;;;5076820;28;20206;-57
2023/06/03 07:28:31;;;;;;;3.27;1.47;;;18.60;99.90;;;;;;5080002;28;20217;-57
2023/06/03 07:31:00;;;;;;;2.07;1.60;;;18.80;99.90;;;;;;5075269;28;20231;-57
2023/06/03 07:33:35;;;;;;;4.07;1.73;;;19.00;99.90;;;;;;5072377;28;20242;-58
2023/06/03 07:36:03;;;;;;;2.87;1.60;;;19.40;99.90;;;;;;5075685;28;20209;-57
2023/06/03 07:38:39;;;;;;;2.97;1.13;;;19.50;99.90;;;;;;5078493;28;20676;-57
2023/06/03 07:41:08;;;;;;;3.83;1.50;;;19.90;99.90;;;;;;5069705;28;20288;-57
2023/06/03 07:43:40;;;;;;;2.43;1.10;;;19.80;99.90;;;;;;5067525;28;20240;-59
2023/06/03 07:46:08;;;;;;;2.27;1.40;;;20.00;99.90;;;;;;5077225;28;20709;-57
2023/06/03 07:48:39;;;;;;;1.80;1.30;;;19.90;99.90;;;;;;5066188;28;20210;-57
2023/06/03 07:51:07;;;;;;;4.17;1.50;;;20.10;99.90;;;;;;5082016;28;20705;-57
2023/06/03 07:53:39;;;;;;;3.57;1.47;;;20.00;99.90;;;;;;5065509;28;20198;-57
2023/06/03 07:56:12;;;;;;;2.40;1.20;;;19.80;99.90;;;;;;5085388;28;20564;-58
2023/06/03 07:58:39;;;;;;;3.60;1.27;;;20.00;99.90;;;;;;5087150;28;20195;-57
2023/06/03 08:01:06;;;;;;;3.50;1.20;;;20.00;99.90;;;;;;5082946;28;20194;-57
2023/06/03 08:03:34;;;;;;;2.30;1.43;;;20.10;99.90;;;;;;5082488;28;20230;-57
2023/06/03 08:06:01;;;;;;;2.40;1.30;;;20.30;99.90;;;;;;5085917;28;20233;-57
2023/06/03 08:08:33;;;;;;;3.17;1.27;;;20.50;99.90;;;;;;5085494;28;20207;-57
2023/06/03 08:11:01;;;;;;;1.93;1.10;;;20.70;99.90;;;;;;5087196;28;20221;-56
2023/06/03 08:13:28;;;;;;;2.57;1.00;;;21.10;99.90;;;;;;5085051;28;20220;-56
2023/06/03 08:15:55;;;;;;;1.43;1.13;;;20.70;99.90;;;;;;5085690;28;20275;-57
2023/06/03 08:18:31;;;;;;;3.13;1.47;;;20.90;99.90;;;;;;5081347;28;20298;-58
2023/06/03 08:21:02;;;;;;;3.93;1.20;;;21.20;99.90;;;;;;5085078;28;20194;-57
2023/06/03 08:23:30;;;;;;;2.97;1.00;;;21.10;99.90;;;;;;5085146;28;20624;-56
2023/06/03 08:25:59;;;;;;;1.70;1.10;;;21.20;99.90;;;;;;5082279;28;20226;-57
2023/06/03 08:28:26;;;;;;;3.73;0.93;;;21.30;99.90;;;;;;5083937;28;20195;-57
2023/06/03 08:30:54;;;;;;;2.70;1.70;;;21.10;99.90;;;;;;5085453;28;20607;-56
2023/06/03 08:33:21;;;;;;;2.97;1.30;;;21.30;99.90;;;;;;5082095;28;20226;-56
2023/06/03 08:35:48;;;;;;;2.33;1.20;;;21.40;99.90;;;;;;5079268;28;21243;-58
2023/06/03 08:38:16;;;;;;;3.10;1.07;;;21.70;99.90;;;;;;5084728;28;20197;-57
2023/06/03 08:40:48;;;;;;;3.50;1.07;;;21.60;99.90;;;;;;5084919;28;20229;-60
2023/06/03 08:43:16;;;;;;;3.30;1.40;;;21.20;99.90;;;;;;5081265;28;20206;-60
2023/06/03 08:46:03;;;;;;;4.27;1.20;;;21.20;99.90;;;;;;5078424;28;20195;-59
2023/06/03 08:48:56;;;;;;;2.33;1.10;;;21.50;99.90;;;;;;5078115;28;20209;-60
2023/06/03 08:51:23;;;;;;;1.67;1.00;;;21.40;99.90;;;;;;5078589;28;20218;-60
2023/06/03 08:53:51;;;;;;;3.97;2.00;;;21.70;99.90;;;;;;5080492;28;20280;-60
2023/06/03 08:56:20;;;;;;;4.37;1.43;;;21.70;99.90;;;;;;5081501;28;20688;-60
2023/06/03 08:59:01;;;;;;;2.10;1.23;;;21.60;99.90;;;;;;5079495;28;20197;-60
2023/06/03 09:01:32;;;;;;;3.00;1.27;;;21.80;99.90;;;;;;5063934;28;20199;-60
2023/06/03 09:04:02;;;;;;;2.20;1.10;;;22.00;99.90;;;;;;5068443;28;20732;-60
2023/06/03 09:06:29;;;;;;;2.37;1.20;;;22.60;99.90;;;;;;5073000;28;20207;-60
2023/06/03 09:08:57;;;;;;;1.60;1.23;;;22.80;99.90;;;;;;5078493;28;20199;-60
2023/06/03 09:11:25;;;;;;;4.63;1.27;;;22.40;99.90;;;;;;5075899;28;20225;-60
2023/06/03 09:13:53;;;;;;;4.83;1.47;;;22.60;99.90;;;;;;5053945;28;20200;-59
2023/06/03 09:16:21;;;;;;;3.53;1.03;;;22.50;99.90;;;;;;5060269;28;21771;-59
2023/06/03 09:18:51;;;;;;;1.47;1.10;;;22.40;99.90;;;;;;5079161;28;20202;-59
2023/06/03 09:21:19;;;;;;;1.03;0.90;;;22.70;99.90;;;;;;5080965;28;20207;-59
2023/06/03 09:23:46;;;;;;;2.57;1.43;;;22.80;99.90;;;;;;5079041;28;20671;-60
2023/06/03 09:26:13;;;;;;;3.43;1.23;;;22.60;99.90;;;;;;5066476;28;20205;-60
2023/06/03 09:28:40;;;;;;;1.17;1.07;;;22.50;99.90;;;;;;5078957;28;20202;-60
2023/06/03 09:31:07;;;;;;;1.60;1.13;;;22.30;99.90;;;;;;5083111;28;20289;-61
2023/06/03 09:33:36;;;;;;;2.03;1.73;;;22.10;99.90;;;;;;5079286;28;20237;-59
2023/06/03 09:36:11;;;;;;;4.33;2.20;;;22.40;99.90;;;;;;5083684;28;20237;-59
2023/06/03 09:38:49;;;;;;;2.17;1.47;;;22.60;99.90;;;;;;5086055;28;20825;-60
2023/06/03 09:41:19;;;;;;;3.43;1.07;;;22.20;99.90;;;;;;5076491;28;20588;-59
2023/06/03 09:43:54;;;;;;;2.90;1.53;;;22.50;99.90;;;;;;5080306;28;20200;-60
2023/06/03 09:46:21;;;;;;;2.40;1.10;;;22.40;99.90;;;;;;5080780;28;20236;-62
2023/06/03 09:48:48;;;;;;;2.33;1.23;;;22.40;99.90;;;;;;5078994;28;20223;-60
2023/06/03 09:51:15;;;;;;;1.70;0.90;;;22.70;99.90;;;;;;5083918;28;20228;-59
2023/06/03 09:53:42;;;;;;;1.87;1.10;;;22.30;99.90;;;;;;5079291;28;20206;-60
2023/06/03 09:56:28;;;;;;;2.27;1.10;;;22.20;99.90;;;;;;5059801;28;20265;-59
2023/06/03 09:59:15;;;;;;;2.70;1.20;;;22.40;99.90;;;;;;5085330;28;20213;-60
2023/06/03 10:01:47;;;;;;;2.80;1.20;;;22.50;99.90;;;;;;5059895;28;20207;-61
2023/06/03 10:04:23;;;;;;;2.83;1.27;;;21.90;99.90;;;;;;5083414;28;20242;-61
2023/06/03 10:07:11;;;;;;;2.07;1.00;;;22.10;99.90;;;;;;5080574;28;20213;-60
2023/06/03 10:09:39;;;;;;;3.83;1.33;;;22.00;99.90;;;;;;5081385;28;20213;-59
2023/06/03 10:12:07;;;;;;;3.13;1.27;;;22.20;99.90;;;;;;5080176;28;20908;-61
2023/06/03 10:14:44;;;;;;;1.47;1.13;;;22.20;99.90;;;;;;5070150;28;20194;-63
2023/06/03 10:17:13;;;;;;;1.63;0.70;;;21.80;99.90;;;;;;5085824;28;20194;-63
2023/06/03 10:19:44;;;;;;;1.90;1.00;;;21.70;99.90;;;;;;5081861;28;20203;-60
2023/06/03 10:22:15;;;;;;;1.97;1.03;;;22.00;99.90;;;;;;5084273;28;20198;-60
2023/06/03 10:24:43;;;;;;;5.20;0.93;;;22.10;99.90;;;;;;5080974;28;20202;-61
2023/06/03 10:27:11;;;;;;;1.67;0.87;;;22.20;99.90;;;;;;5082691;28;20612;-61
2023/06/03 10:29:38;;;;;;;2.60;1.50;;;21.60;99.90;;;;;;5085120;28;20234;-59
2023/06/03 10:32:07;;;;;;;1.90;1.20;;;21.70;99.90;;;;;;5064662;28;20238;-59
2023/06/03 10:34:39;;;;;;;1.70;0.90;;;21.80;99.90;;;;;;5072321;28;20588;-59
2023/06/03 10:37:08;;;;;;;3.37;1.20;;;22.20;99.90;;;;;;5063788;28;20247;-60
2023/06/03 10:39:34;;;;;;;1.40;0.90;;;22.00;99.90;;;;;;5065557;28;20206;-59
2023/06/03 10:42:05;;;;;;;1.90;1.03;;;22.00;99.90;;;;;;5088068;28;20206;-59
2023/06/03 10:44:34;;;;;;;2.43;1.03;;;22.10;99.90;;;;;;5084397;28;20194;-59
2023/06/03 10:47:15;;;;;;;1.47;0.93;;;21.60;99.90;;;;;;5084702;28;20658;-60
2023/06/03 10:49:56;;;;;;;1.50;0.80;;;21.80;99.90;;;;;;5082305;28;20187;-59
2023/06/03 10:52:51;;;;;;;4.00;0.80;;;22.20;99.90;;;;;;5084484;28;20386;-59
2023/06/03 10:55:37;;;;;;;2.20;0.70;;;22.20;99.90;;;;;;5087093;28;20199;-59
2023/06/03 10:58:12;;;;;;;2.83;0.90;;;22.30;99.90;;;;;;5083717;28;20206;-59
2023/06/03 11:00:59;;;;;;;1.60;0.60;;;22.10;99.90;;;;;;5085181;28;20433;-59
2023/06/03 11:03:31;;;;;;;2.57;0.60;;;22.00;99.90;;;;;;5062258;28;20208;-60
2023/06/03 11:06:30;;;;;;;1.10;0.70;;;22.20;99.90;;;;;;5077309;28;20291;-63
2023/06/03 11:09:02;;;;;;;1.43;0.67;;;22.10;99.90;;;;;;5042536;28;20237;-60
2023/06/03 11:11:41;;;;;;;1.77;0.60;;;22.40;99.90;;;;;;5085034;28;20263;-59
2023/06/03 11:14:09;;;;;;;1.43;0.70;;;22.50;99.90;;;;;;5085273;28;20506;-59
2023/06/03 11:16:57;;;;;;;2.97;0.77;;;22.70;99.90;;;;;;5079799;28;20685;-59
2023/06/03 11:19:33;;;;;;;4.07;0.83;;;22.80;99.90;;;;;;5081798;28;20198;-59
2023/06/03 11:22:02;;;;;;;2.10;0.80;;;22.70;99.90;;;;;;5083792;28;20546;-60
2023/06/03 11:24:38;;;;;;;1.90;0.67;;;22.30;99.90;;;;;;5082096;28;20289;-59
2023/06/03 11:27:14;;;;;;;0.80;0.63;;;22.60;99.90;;;;;;5078153;28;20617;-59
2023/06/03 11:29:44;;;;;;;1.63;1.00;;;22.60;99.90;;;;;;5078372;28;20200;-59
2023/06/03 11:32:13;;;;;;;1.10;0.80;;;23.00;99.90;;;;;;5073494;28;20695;-59
2023/06/03 11:34:40;;;;;;;2.60;0.60;;;23.50;99.90;;;;;;5078566;28;20202;-59
2023/06/03 11:37:07;;;;;;;1.90;0.60;;;23.10;99.90;;;;;;5086811;28;20195;-59
2023/06/03 11:40:05;;;;;;;1.07;0.80;;;23.00;99.90;;;;;;5087776;28;20215;-59
2023/06/03 11:42:48;;;;;;;0.97;0.70;;;23.50;99.90;;;;;;5077475;28;20212;-59
2023/06/03 11:45:37;;;;;;;0.67;0.67;;;24.00;99.90;;;;;;5079136;28;20252;-60
2023/06/03 11:48:07;;;;;;;1.03;0.73;;;24.00;99.90;;;;;;5079684;28;20251;-59
2023/06/03 11:50:54;;;;;;;2.60;0.70;;;24.10;99.90;;;;;;5063393;28;20236;-59
2023/06/03 11:53:35;;;;;;;1.27;0.70;;;24.20;99.90;;;;;;5060177;28;20228;-59
2023/06/03 11:56:12;;;;;;;1.53;0.67;;;24.40;99.90;;;;;;5078613;28;20903;-59
2023/06/03 11:58:51;;;;;;;1.73;0.50;;;24.70;99.90;;;;;;5083609;28;20222;-59
2023/06/03 12:01:18;;;;;;;4.97;0.87;;;24.50;99.90;;;;;;5073145;28;20868;-59
2023/06/03 12:04:01;;;;;;;1.90;0.80;;;24.20;99.90;;;;;;5046290;28;20291;-59
2023/06/03 12:06:36;;;;;;;1.13;1.00;;;23.40;99.90;;;;;;5052181;28;20200;-60
2023/06/03 12:09:03;;;;;;;1.27;0.60;;;24.10;99.90;;;;;;5078531;28;20644;-60
2023/06/03 12:11:37;;;;;;;0.57;0.50;;;24.10;99.90;;;;;;5086629;28;20198;-60
2023/06/03 12:14:05;;;;;;;2.70;1.33;;;24.30;99.90;;;;;;5077705;28;20696;-60
2023/06/03 12:16:34;;;;;;;3.10;0.80;;;24.50;99.90;;;;;;5081311;28;20207;-60
2023/06/03 12:19:05;;;;;;;0.83;0.70;;;24.40;99.90;;;;;;5080085;28;20207;-60
2023/06/03 12:21:34;;;;;;;0.70;0.70;;;25.00;99.90;;;;;;5079942;28;20224;-60
2023/06/03 12:24:12;;;;;;;2.33;0.70;;;24.50;99.90;;;;;;5056729;28;20204;-60
2023/06/03 12:26:41;;;;;;;1.07;0.70;;;24.10;99.90;;;;;;5080951;28;20717;-60
2023/06/03 12:29:12;;;;;;;1.67;0.83;;;24.40;99.90;;;;;;5064882;28;20284;-60
2023/06/03 12:31:39;;;;;;;4.60;0.80;;;24.30;99.90;;;;;;5081727;28;20195;-60
2023/06/03 12:34:06;;;;;;;1.00;0.90;;;24.10;99.90;;;;;;5078234;28;21042;-60
2023/06/03 12:36:49;;;;;;;0.93;0.83;;;24.40;99.90;;;;;;5076991;28;20203;-60
2023/06/03 12:39:18;;;;;;;2.43;0.80;;;24.70;99.90;;;;;;5063114;28;20550;-60
2023/06/03 12:41:52;;;;;;;1.67;0.90;;;24.50;99.90;;;;;;5084299;28;20226;-60
2023/06/03 12:44:20;;;;;;;0.83;0.60;;;24.90;99.90;;;;;;5083602;28;20201;-60
2023/06/03 12:47:03;;;;;;;3.63;0.77;;;24.80;99.90;;;;;;5081215;28;20202;-60
2023/06/03 12:49:30;;;;;;;2.97;0.63;;;24.80;99.90;;;;;;5077624;28;20631;-60
2023/06/03 12:52:18;;;;;;;1.13;0.90;;;24.50;99.90;;;;;;5075032;28;20747;-59
2023/06/03 12:54:52;;;;;;;4.00;0.80;;;24.60;99.90;;;;;;5078870;28;20232;-60
2023/06/03 12:57:20;;;;;;;1.00;0.90;;;24.20;99.90;;;;;;5079618;28;20198;-60
2023/06/03 13:00:08;;;;;;;2.00;0.73;;;24.40;99.90;;;;;;5080714;28;20220;-60
2023/06/03 13:02:37;;;;;;;0.70;0.60;;;24.30;99.90;;;;;;5078651;28;20210;-60